createdAt,value
2022-08-31T00:00:30.147Z,63.46
2022-08-31T00:03:15.928Z,63.28
2022-08-31T00:05:45.669Z,62.94
2022-08-31T00:08:13.758Z,63.08
2022-08-31T00:10:46.121Z,63.06
2022-08-31T00:13:14.816Z,63.30
2022-08-31T00:15:43.739Z,63.27
2022-08-31T00:18:11.835Z,63.25
2022-08-31T00:20:40.372Z,63.85
2022-08-31T00:23:12.070Z,64.14
2022-08-31T00:25:42.266Z,63.71
2022-08-31T00:28:11.366Z,63.67
2022-08-31T00:30:40.308Z,63.72
2022-08-31T00:33:09.272Z,63.88
2022-08-31T00:35:38.033Z,63.86
2022-08-31T00:38:07.390Z,63.73
2022-08-31T00:40:44.536Z,64.50
2022-08-31T00:43:13.990Z,64.29
2022-08-31T00:45:42.019Z,64.50
2022-08-31T00:48:10.173Z,64.01
2022-08-31T00:50:38.114Z,64.19
2022-08-31T00:53:06.287Z,64.27
2022-08-31T00:55:37.516Z,64.10
2022-08-31T00:58:11.752Z,64.45
2022-08-31T01:00:43.220Z,65.02
2022-08-31T01:03:11.800Z,64.05
2022-08-31T01:05:41.503Z,64.97
2022-08-31T01:08:10.049Z,64.77
2022-08-31T01:10:44.113Z,64.65
2022-08-31T01:13:14.039Z,65.08
2022-08-31T01:15:51.292Z,64.88
2022-08-31T01:18:24.668Z,65.10
2022-08-31T01:21:01.476Z,65.27
2022-08-31T01:23:33.767Z,65.11
2022-08-31T01:26:04.193Z,64.80
2022-08-31T01:28:35.514Z,65.28
2022-08-31T01:31:06.426Z,65.36
2022-08-31T01:33:35.578Z,65.53
2022-08-31T01:36:04.732Z,65.03
2022-08-31T01:38:35.529Z,65.81
2022-08-31T01:41:04.762Z,65.35
2022-08-31T01:43:34.977Z,65.60
2022-08-31T01:46:06.269Z,65.38
2022-08-31T01:48:41.382Z,65.70
2022-08-31T01:51:12.615Z,65.41
2022-08-31T01:53:45.792Z,65.57
2022-08-31T01:56:20.206Z,65.81
2022-08-31T01:58:48.240Z,66.11
2022-08-31T02:01:33.289Z,66.11
2022-08-31T02:04:08.129Z,65.91
2022-08-31T02:06:37.120Z,65.98
2022-08-31T02:09:10.054Z,66.38
2022-08-31T02:11:38.374Z,66.17
2022-08-31T02:14:07.553Z,65.85
2022-08-31T02:16:35.706Z,66.05
2022-08-31T02:19:04.817Z,65.90
2022-08-31T02:21:33.149Z,66.07
2022-08-31T02:24:08.206Z,66.50
2022-08-31T02:26:36.241Z,66.28
2022-08-31T02:29:04.326Z,66.88
2022-08-31T02:31:32.261Z,66.59
2022-08-31T02:34:00.452Z,66.04
2022-08-31T02:36:28.733Z,66.99
2022-08-31T02:38:56.820Z,66.11
2022-08-31T02:41:27.028Z,66.77
2022-08-31T02:43:54.920Z,66.83
2022-08-31T02:46:23.182Z,66.47
2022-08-31T02:48:51.292Z,66.98
2022-08-31T02:51:19.331Z,66.94
2022-08-31T02:53:47.278Z,67.11
2022-08-31T02:56:16.424Z,66.78
2022-08-31T02:58:45.704Z,67.41
2022-08-31T03:01:13.750Z,66.96
2022-08-31T03:03:46.474Z,67.28
2022-08-31T03:06:17.712Z,66.96
2022-08-31T03:08:45.772Z,67.34
2022-08-31T03:11:13.993Z,66.95
2022-08-31T03:13:42.753Z,67.49
2022-08-31T03:16:14.682Z,67.36
2022-08-31T03:18:42.972Z,67.52
2022-08-31T03:21:11.043Z,67.37
2022-08-31T03:23:39.360Z,67.56
2022-08-31T03:26:08.006Z,67.59
2022-08-31T03:28:37.448Z,67.82
2022-08-31T03:31:08.952Z,68.01
2022-08-31T03:33:38.946Z,67.54
2022-08-31T03:36:07.208Z,67.36
2022-08-31T03:38:35.571Z,67.62
2022-08-31T03:41:03.958Z,67.76
2022-08-31T03:43:31.860Z,67.70
2022-08-31T03:46:00.281Z,68.20
2022-08-31T03:48:28.370Z,68.02
2022-08-31T03:50:57.722Z,67.79
2022-08-31T03:53:25.894Z,67.85
2022-08-31T03:56:01.140Z,68.09
2022-08-31T03:58:29.712Z,68.23
2022-08-31T04:00:57.893Z,67.99
2022-08-31T04:03:26.072Z,68.05
2022-08-31T04:05:54.038Z,68.61
2022-08-31T04:08:23.968Z,68.17
2022-08-31T04:10:54.079Z,68.23
2022-08-31T04:13:28.049Z,68.52
2022-08-31T04:16:00.919Z,67.98
2022-08-31T04:18:29.011Z,68.56
2022-08-31T04:20:56.892Z,68.76
2022-08-31T04:23:29.533Z,68.86
2022-08-31T04:25:58.500Z,68.82
2022-08-31T04:28:26.482Z,68.78
2022-08-31T04:30:57.476Z,68.80
2022-08-31T04:33:25.630Z,68.98
2022-08-31T04:35:53.867Z,69.22
2022-08-31T04:38:21.868Z,69.00
2022-08-31T04:40:52.477Z,69.18
2022-08-31T04:43:20.864Z,69.38
2022-08-31T04:45:52.383Z,68.84
2022-08-31T04:48:20.307Z,69.09
2022-08-31T04:50:50.818Z,69.10
2022-08-31T04:53:18.919Z,69.37
2022-08-31T04:55:47.037Z,69.45
2022-08-31T04:58:17.787Z,69.78
2022-08-31T05:00:45.911Z,69.34
2022-08-31T05:03:13.987Z,69.39
2022-08-31T05:05:42.414Z,69.78
2022-08-31T05:08:10.367Z,70.19
2022-08-31T05:10:40.414Z,69.84
2022-08-31T05:13:08.419Z,69.63
2022-08-31T05:15:44.381Z,70.06
2022-08-31T05:18:13.099Z,70.17
2022-08-31T05:20:41.903Z,69.69
2022-08-31T05:23:10.088Z,70.71
2022-08-31T05:25:40.466Z,70.12
2022-08-31T05:28:09.013Z,70.52
2022-08-31T05:30:38.532Z,70.42
2022-08-31T05:33:06.671Z,70.41
2022-08-31T05:35:35.604Z,70.44
2022-08-31T05:38:03.632Z,70.51
2022-08-31T05:40:31.597Z,71.03
2022-08-31T05:42:59.803Z,70.68
2022-08-31T05:45:28.275Z,70.55
2022-08-31T05:47:59.888Z,71.04
2022-08-31T05:50:27.713Z,70.92
2022-08-31T05:52:55.655Z,71.43
2022-08-31T05:55:23.621Z,71.08
2022-08-31T05:57:52.667Z,71.34
2022-08-31T06:00:20.898Z,71.38
2022-08-31T06:02:52.232Z,71.67
2022-08-31T06:05:23.754Z,71.13
2022-08-31T06:07:51.827Z,71.47
2022-08-31T06:10:20.940Z,71.59
2022-08-31T06:12:49.026Z,71.83
2022-08-31T06:15:18.031Z,71.60
2022-08-31T06:17:45.999Z,71.39
2022-08-31T06:20:17.702Z,71.87
2022-08-31T06:22:48.176Z,72.00
2022-08-31T06:25:20.794Z,71.92
2022-08-31T06:27:50.699Z,72.05
2022-08-31T06:30:27.298Z,72.31
2022-08-31T06:32:58.662Z,72.31
2022-08-31T06:35:26.910Z,72.43
2022-08-31T06:37:57.260Z,72.42
2022-08-31T06:40:26.425Z,72.28
2022-08-31T06:42:54.562Z,72.50
2022-08-31T06:45:22.952Z,72.33
2022-08-31T06:47:51.075Z,72.62
2022-08-31T06:50:19.180Z,72.86
2022-08-31T06:52:48.630Z,72.74
2022-08-31T06:55:18.326Z,72.83
2022-08-31T06:57:46.274Z,73.01
2022-08-31T07:00:14.429Z,72.84
2022-08-31T07:02:42.339Z,73.17
2022-08-31T07:05:15.599Z,72.93
2022-08-31T07:07:48.270Z,73.08
2022-08-31T07:10:19.441Z,72.95
2022-08-31T07:12:47.445Z,73.01
2022-08-31T07:15:15.835Z,73.11
2022-08-31T07:17:43.913Z,73.03
2022-08-31T07:20:12.933Z,73.21
2022-08-31T07:22:40.972Z,73.33
2022-08-31T07:25:11.216Z,73.24
2022-08-31T07:27:40.519Z,73.32
2022-08-31T07:30:10.070Z,73.06
2022-08-31T07:32:38.403Z,73.40
2022-08-31T07:35:07.517Z,73.31
2022-08-31T07:37:53.443Z,73.30
2022-08-31T07:40:39.133Z,73.18
2022-08-31T07:43:11.692Z,73.36
2022-08-31T07:45:41.005Z,73.04
2022-08-31T07:48:09.962Z,73.38
2022-08-31T07:50:46.751Z,73.31
2022-08-31T07:53:15.460Z,73.19
2022-08-31T07:55:48.053Z,73.35
2022-08-31T07:58:17.852Z,73.23
2022-08-31T08:00:48.738Z,73.19
2022-08-31T08:03:17.494Z,73.26
2022-08-31T08:05:45.749Z,73.21
2022-08-31T08:08:15.787Z,73.05
2022-08-31T08:10:52.163Z,73.35
2022-08-31T08:13:23.296Z,72.95
2022-08-31T08:15:56.635Z,73.03
2022-08-31T08:18:25.273Z,73.02
2022-08-31T08:20:55.104Z,72.93
2022-08-31T08:23:27.976Z,72.96
2022-08-31T08:25:59.371Z,73.09
2022-08-31T08:28:45.944Z,72.71
2022-08-31T08:31:16.886Z,72.75
2022-08-31T08:33:46.515Z,72.75
2022-08-31T08:36:19.324Z,72.70
2022-08-31T08:38:51.519Z,72.72
2022-08-31T08:41:22.145Z,72.68
2022-08-31T08:43:53.795Z,72.56
2022-08-31T08:46:35.307Z,72.54
2022-08-31T08:49:13.393Z,72.43
2022-08-31T08:51:41.654Z,72.46
2022-08-31T08:54:14.156Z,72.38
2022-08-31T08:56:47.856Z,72.22
2022-08-31T08:59:19.869Z,72.26
2022-08-31T09:01:50.621Z,72.08
2022-08-31T09:04:35.808Z,71.96
2022-08-31T09:07:23.175Z,71.83
2022-08-31T09:10:02.368Z,71.90
2022-08-31T09:12:44.724Z,71.79
2022-08-31T09:15:51.434Z,71.65
2022-08-31T09:18:36.646Z,71.28
2022-08-31T09:21:08.073Z,71.25
2022-08-31T09:23:44.506Z,71.32
2022-08-31T09:26:18.009Z,71.26
2022-08-31T09:28:52.978Z,71.15
2022-08-31T09:31:37.337Z,70.89
2022-08-31T09:34:11.142Z,71.01
2022-08-31T09:36:41.854Z,70.74
2022-08-31T09:39:21.147Z,70.64
2022-08-31T09:41:51.011Z,70.51
2022-08-31T09:44:32.653Z,70.64
2022-08-31T09:47:04.426Z,70.45
2022-08-31T09:49:36.852Z,70.18
2022-08-31T09:52:21.236Z,70.45
2022-08-31T09:55:13.906Z,70.06
2022-08-31T09:57:54.277Z,69.88
2022-08-31T10:00:34.415Z,69.92
2022-08-31T10:03:12.356Z,69.73
2022-08-31T10:05:44.712Z,69.98
2022-08-31T10:08:28.218Z,69.75
2022-08-31T10:10:58.552Z,69.63
2022-08-31T10:13:40.889Z,69.17
2022-08-31T10:16:17.126Z,68.90
2022-08-31T10:18:56.946Z,68.86
2022-08-31T10:21:36.275Z,68.77
2022-08-31T10:24:20.672Z,68.67
2022-08-31T10:26:53.989Z,68.40
2022-08-31T10:29:32.576Z,68.35
2022-08-31T10:32:06.121Z,67.98
2022-08-31T10:34:56.351Z,67.95
2022-08-31T10:37:31.716Z,67.76
2022-08-31T10:40:07.320Z,67.49
2022-08-31T10:42:39.362Z,67.27
2022-08-31T10:45:18.397Z,67.21
2022-08-31T10:47:50.298Z,67.52
2022-08-31T10:50:28.441Z,67.50
2022-08-31T10:53:13.823Z,67.27
2022-08-31T10:55:51.531Z,67.01
2022-08-31T10:58:31.380Z,66.67
2022-08-31T11:01:08.756Z,66.67
2022-08-31T11:04:04.833Z,66.26
2022-08-31T11:06:40.210Z,66.39
2022-08-31T11:09:20.504Z,66.21
2022-08-31T11:11:57.499Z,66.14
2022-08-31T11:14:45.607Z,65.62
2022-08-31T11:17:32.761Z,65.68
2022-08-31T11:20:28.306Z,65.52
2022-08-31T11:23:21.546Z,65.68
2022-08-31T11:26:29.371Z,65.43
2022-08-31T11:29:03.031Z,65.10
2022-08-31T11:31:35.413Z,64.77
2022-08-31T11:34:16.432Z,64.54
2022-08-31T11:36:50.263Z,64.85
2022-08-31T11:39:44.455Z,64.58
2022-08-31T11:42:38.213Z,64.43
2022-08-31T11:45:12.918Z,64.26
2022-08-31T11:47:44.491Z,64.12
2022-08-31T11:50:29.123Z,64.03
2022-08-31T11:53:00.359Z,63.81
2022-08-31T11:55:30.703Z,63.80
2022-08-31T11:58:26.682Z,63.66
2022-08-31T12:01:03.010Z,63.71
2022-08-31T12:03:50.897Z,63.40
2022-08-31T12:07:07.313Z,63.40
2022-08-31T12:10:13.232Z,63.33
2022-08-31T12:13:07.548Z,63.13
2022-08-31T12:15:53.088Z,62.95
2022-08-31T12:18:40.526Z,62.92
2022-08-31T12:21:31.319Z,62.81
2022-08-31T12:24:15.389Z,62.71
2022-08-31T12:26:58.863Z,62.56
2022-08-31T12:29:30.690Z,62.47
2022-08-31T12:32:15.121Z,62.16
2022-08-31T12:34:50.406Z,62.19
2022-08-31T12:37:27.175Z,62.17
2022-08-31T12:40:16.057Z,62.07
2022-08-31T12:42:53.432Z,61.94
2022-08-31T12:45:28.747Z,61.94
2022-08-31T12:48:07.500Z,61.79
2022-08-31T12:50:46.685Z,61.68
2022-08-31T12:53:46.936Z,61.62
2022-08-31T12:56:21.447Z,61.49
2022-08-31T12:59:03.955Z,61.63
2022-08-31T13:01:32.144Z,61.43
2022-08-31T13:04:04.879Z,61.53
2022-08-31T13:06:37.220Z,61.21
2022-08-31T13:09:06.754Z,61.13
2022-08-31T13:11:41.102Z,61.00
2022-08-31T13:14:13.585Z,60.63
2022-08-31T13:16:44.407Z,60.53
2022-08-31T13:19:19.271Z,60.37
2022-08-31T13:21:53.082Z,60.18
2022-08-31T13:24:28.953Z,60.49
2022-08-31T13:27:13.138Z,60.33
2022-08-31T13:29:45.525Z,60.16
2022-08-31T13:32:16.205Z,60.11
2022-08-31T13:34:44.114Z,60.15
2022-08-31T13:37:21.126Z,60.00
2022-08-31T13:39:49.147Z,60.03
2022-08-31T13:42:33.986Z,60.05
2022-08-31T13:45:07.478Z,60.06
2022-08-31T13:47:51.885Z,60.39
2022-08-31T13:50:32.975Z,60.07
2022-08-31T13:53:26.062Z,60.18
2022-08-31T13:55:52.753Z,60.04
2022-08-31T13:58:28.685Z,60.21
2022-08-31T14:01:24.956Z,60.20
2022-08-31T14:03:56.467Z,60.15
2022-08-31T14:06:26.821Z,60.28
2022-08-31T14:09:03.286Z,60.25
2022-08-31T14:11:32.235Z,60.13
2022-08-31T14:14:06.113Z,60.01
2022-08-31T14:16:37.172Z,60.04
2022-08-31T14:19:05.979Z,59.99
2022-08-31T14:21:35.362Z,59.95
2022-08-31T14:24:07.893Z,59.81
2022-08-31T14:26:41.002Z,60.16
2022-08-31T14:29:12.248Z,60.19
2022-08-31T14:31:46.920Z,60.38
2022-08-31T14:34:22.419Z,60.27
2022-08-31T14:36:54.198Z,60.67
2022-08-31T14:39:26.802Z,60.73
2022-08-31T14:41:57.405Z,60.58
2022-08-31T14:44:29.219Z,60.62
2022-08-31T14:46:57.346Z,60.71
2022-08-31T14:49:25.887Z,60.57
2022-08-31T14:51:53.854Z,60.33
2022-08-31T14:54:24.915Z,60.47
2022-08-31T14:56:56.256Z,60.16
2022-08-31T14:59:24.300Z,60.42
2022-08-31T15:01:52.351Z,60.45
2022-08-31T15:04:21.922Z,60.01
2022-08-31T15:06:55.059Z,60.09
2022-08-31T15:09:24.410Z,59.63
2022-08-31T15:11:52.506Z,59.86
2022-08-31T15:14:20.954Z,59.98
2022-08-31T15:16:50.763Z,59.74
2022-08-31T15:19:19.054Z,59.81
2022-08-31T15:21:52.845Z,59.94
2022-08-31T15:24:28.330Z,59.84
2022-08-31T15:27:00.107Z,59.35
2022-08-31T15:29:30.577Z,59.20
2022-08-31T15:32:00.499Z,59.17
2022-08-31T15:34:31.208Z,59.17
2022-08-31T15:37:02.202Z,58.79
2022-08-31T15:39:35.654Z,58.63
2022-08-31T15:42:09.369Z,58.47
2022-08-31T15:44:37.902Z,58.54
2022-08-31T15:47:24.747Z,58.27
2022-08-31T15:49:52.996Z,58.36
2022-08-31T15:52:21.181Z,58.22
2022-08-31T15:54:50.528Z,58.08
2022-08-31T15:57:19.105Z,58.10
2022-08-31T15:59:47.195Z,57.95
2022-08-31T16:02:20.502Z,57.93
2022-08-31T16:04:50.664Z,57.90
2022-08-31T16:07:19.081Z,57.79
2022-08-31T16:09:47.402Z,57.49
2022-08-31T16:12:21.191Z,57.86
2022-08-31T16:14:51.739Z,57.78
2022-08-31T16:17:20.148Z,57.67
2022-08-31T16:19:53.809Z,57.60
2022-08-31T16:22:22.600Z,57.71
2022-08-31T16:24:57.531Z,57.46
2022-08-31T16:27:26.958Z,57.44
2022-08-31T16:29:54.968Z,57.29
2022-08-31T16:32:25.324Z,57.53
2022-08-31T16:34:54.906Z,57.36
2022-08-31T16:37:22.803Z,57.57
2022-08-31T16:39:50.865Z,57.07
2022-08-31T16:42:19.120Z,57.16
2022-08-31T16:44:48.723Z,57.21
2022-08-31T16:47:18.989Z,57.29
2022-08-31T16:49:46.882Z,57.38
2022-08-31T16:52:18.246Z,57.22
2022-08-31T16:54:48.764Z,57.22
2022-08-31T16:57:20.733Z,57.06
2022-08-31T16:59:51.540Z,56.93
2022-08-31T17:02:21.119Z,57.10
2022-08-31T17:04:52.619Z,57.12
2022-08-31T17:07:23.757Z,56.84
2022-08-31T17:09:52.743Z,57.04
2022-08-31T17:12:26.090Z,56.64
2022-08-31T17:14:56.145Z,56.86
2022-08-31T17:17:26.205Z,56.86
2022-08-31T17:19:55.709Z,57.06
2022-08-31T17:22:31.856Z,57.12
2022-08-31T17:25:03.198Z,56.89
2022-08-31T17:27:33.084Z,56.98
2022-08-31T17:30:05.967Z,56.92
2022-08-31T17:32:39.381Z,56.96
2022-08-31T17:35:18.056Z,56.76
2022-08-31T17:37:46.217Z,56.82
2022-08-31T17:40:14.465Z,56.91
2022-08-31T17:42:42.587Z,56.82
2022-08-31T17:45:13.046Z,56.96
2022-08-31T17:47:41.313Z,56.73
2022-08-31T17:50:12.463Z,56.76
2022-08-31T17:52:40.576Z,56.76
2022-08-31T17:55:09.164Z,57.08
2022-08-31T17:57:38.744Z,56.75
2022-08-31T18:00:08.008Z,56.83
2022-08-31T18:02:38.501Z,56.71
2022-08-31T18:05:11.392Z,56.78
2022-08-31T18:07:40.995Z,56.50
2022-08-31T18:10:10.784Z,56.73
2022-08-31T18:12:41.989Z,56.52
2022-08-31T18:15:12.088Z,56.71
2022-08-31T18:17:45.477Z,57.26
2022-08-31T18:20:13.684Z,56.98
2022-08-31T18:22:41.991Z,56.75
2022-08-31T18:25:11.291Z,56.75
2022-08-31T18:27:39.158Z,56.72
2022-08-31T18:30:08.979Z,57.41
2022-08-31T18:32:37.309Z,56.49
2022-08-31T18:35:11.275Z,56.35
2022-08-31T18:37:39.296Z,57.13
2022-08-31T18:40:25.914Z,56.87
2022-08-31T18:43:11.313Z,56.38
2022-08-31T18:45:39.889Z,56.85
2022-08-31T18:48:24.299Z,57.16
2022-08-31T18:50:59.163Z,57.29
2022-08-31T18:53:30.226Z,57.00
2022-08-31T18:56:00.630Z,57.53
2022-08-31T18:58:29.967Z,57.20
2022-08-31T19:00:59.293Z,57.36
2022-08-31T19:03:31.123Z,57.52
2022-08-31T19:06:01.116Z,57.11
2022-08-31T19:08:33.972Z,57.55
2022-08-31T19:11:05.345Z,57.57
2022-08-31T19:13:33.545Z,57.79
2022-08-31T19:16:15.209Z,57.53
2022-08-31T19:18:45.136Z,57.79
2022-08-31T19:21:18.662Z,57.14
2022-08-31T19:23:51.706Z,57.08
2022-08-31T19:26:23.147Z,57.57
2022-08-31T19:28:51.648Z,57.88
2022-08-31T19:31:21.210Z,57.40
2022-08-31T19:33:56.077Z,57.21
2022-08-31T19:36:30.315Z,57.67
2022-08-31T19:38:59.671Z,57.99
2022-08-31T19:41:29.095Z,57.75
2022-08-31T19:44:09.035Z,57.73
2022-08-31T19:46:41.080Z,57.64
2022-08-31T19:49:11.681Z,57.74
2022-08-31T19:51:43.842Z,57.81
2022-08-31T19:54:13.037Z,58.05
2022-08-31T19:56:43.832Z,58.42
2022-08-31T19:59:18.594Z,58.41
2022-08-31T20:01:50.274Z,57.81
2022-08-31T20:04:19.420Z,57.67
2022-08-31T20:06:52.180Z,58.41
2022-08-31T20:09:22.740Z,58.06
2022-08-31T20:11:51.982Z,57.93
2022-08-31T20:14:22.140Z,58.05
2022-08-31T20:16:51.294Z,58.47
2022-08-31T20:19:25.162Z,58.13
2022-08-31T20:22:02.879Z,58.39
2022-08-31T20:24:30.905Z,58.54
2022-08-31T20:27:09.510Z,58.50
2022-08-31T20:29:38.962Z,58.71
2022-08-31T20:32:08.088Z,58.44
2022-08-31T20:34:37.545Z,58.27
2022-08-31T20:37:07.606Z,58.77
2022-08-31T20:39:37.255Z,58.89
2022-08-31T20:42:07.094Z,59.02
2022-08-31T20:44:38.704Z,59.06
2022-08-31T20:47:26.682Z,59.48
2022-08-31T20:49:56.524Z,58.97
2022-08-31T20:52:29.888Z,59.25
2022-08-31T20:55:02.200Z,59.14
2022-08-31T20:57:31.786Z,59.35
2022-08-31T21:00:05.825Z,59.45
2022-08-31T21:02:35.060Z,59.84
2022-08-31T21:05:27.188Z,59.19
2022-08-31T21:07:57.273Z,59.08
2022-08-31T21:10:36.190Z,59.64
2022-08-31T21:13:07.134Z,59.67
2022-08-31T21:15:35.224Z,59.61
2022-08-31T21:18:03.173Z,60.05
2022-08-31T21:20:32.823Z,59.88
2022-08-31T21:23:02.201Z,59.79
2022-08-31T21:25:30.329Z,60.14
2022-08-31T21:28:00.122Z,60.14
2022-08-31T21:30:29.424Z,60.21
2022-08-31T21:32:57.274Z,60.21
2022-08-31T21:35:26.717Z,60.53
2022-08-31T21:37:54.728Z,60.85
2022-08-31T21:40:24.392Z,60.52
2022-08-31T21:42:52.398Z,60.49
2022-08-31T21:45:20.875Z,60.35
2022-08-31T21:47:48.685Z,60.82
2022-08-31T21:50:16.674Z,60.77
2022-08-31T21:52:44.590Z,60.79
2022-08-31T21:55:13.675Z,60.67
2022-08-31T21:57:43.795Z,60.96
2022-08-31T22:00:17.519Z,60.41
2022-08-31T22:02:50.975Z,60.89
2022-08-31T22:05:19.126Z,60.73
2022-08-31T22:07:47.103Z,61.05
2022-08-31T22:10:15.107Z,61.19
2022-08-31T22:12:44.452Z,61.61
2022-08-31T22:15:16.846Z,61.71
2022-08-31T22:18:06.017Z,60.81
2022-08-31T22:20:33.874Z,61.80
2022-08-31T22:23:02.430Z,61.13
2022-08-31T22:25:33.479Z,61.58
2022-08-31T22:28:06.141Z,62.02
2022-08-31T22:30:36.287Z,61.20
2022-08-31T22:33:04.325Z,61.48
2022-08-31T22:35:32.380Z,61.96
2022-08-31T22:38:00.243Z,61.30
2022-08-31T22:40:28.697Z,61.53
2022-08-31T22:42:58.732Z,61.26
2022-08-31T22:45:28.162Z,61.95
2022-08-31T22:47:56.069Z,61.89
2022-08-31T22:50:24.194Z,61.87
2022-08-31T22:52:52.095Z,62.40
2022-08-31T22:55:20.185Z,62.53
2022-08-31T22:57:48.179Z,62.03
2022-08-31T23:00:17.639Z,61.88
2022-08-31T23:02:46.979Z,62.41
2022-08-31T23:05:16.285Z,62.58
2022-08-31T23:07:44.278Z,62.27
2022-08-31T23:10:18.645Z,62.27
2022-08-31T23:12:51.123Z,62.36
2022-08-31T23:15:21.924Z,62.19
2022-08-31T23:17:52.618Z,62.30
2022-08-31T23:20:24.552Z,62.71
2022-08-31T23:22:55.002Z,62.60
2022-08-31T23:25:25.252Z,62.39
2022-08-31T23:27:53.561Z,62.93
2022-08-31T23:30:22.594Z,63.06
2022-08-31T23:32:53.403Z,62.60
2022-08-31T23:35:22.074Z,62.80
2022-08-31T23:37:52.395Z,62.93
2022-08-31T23:40:20.457Z,62.80
2022-08-31T23:42:48.665Z,62.85
2022-08-31T23:45:17.417Z,62.77
2022-08-31T23:47:45.775Z,63.16
2022-08-31T23:50:14.994Z,63.01
2022-08-31T23:52:43.815Z,62.87
2022-08-31T23:55:12.664Z,63.05
2022-08-31T23:57:44.690Z,63.00
